sensor_id;sensor_type;location;lat;lon;timestamp;pressure;altitude;pressure_sealevel;temperature;humidity
76728;BME280;65652;53.132;18.026;2023-07-22T00:01:12;100613.46;;;17.17;63.78
76728;BME280;65652;53.132;18.026;2023-07-22T00:03:38;100616.45;;;17.14;63.81
76728;BME280;65652;53.132;18.026;2023-07-22T00:06:09;100619.30;;;17.13;64.28
76728;BME280;65652;53.132;18.026;2023-07-22T00:08:36;100614.08;;;17.10;64.74
76728;BME280;65652;53.132;18.026;2023-07-22T00:11:03;100618.71;;;17.07;64.49
76728;BME280;65652;53.132;18.026;2023-07-22T00:13:30;100614.84;;;17.05;64.89
76728;BME280;65652;53.132;18.026;2023-07-22T00:15:57;100611.89;;;17.03;64.90
76728;BME280;65652;53.132;18.026;2023-07-22T00:18:26;100608.34;;;17.00;65.29
76728;BME280;65652;53.132;18.026;2023-07-22T00:20:54;100605.30;;;16.97;65.48
76728;BME280;65652;53.132;18.026;2023-07-22T00:23:20;100600.06;;;16.90;65.52
76728;BME280;65652;53.132;18.026;2023-07-22T00:25:47;100600.05;;;16.85;66.12
76728;BME280;65652;53.132;18.026;2023-07-22T00:28:13;100594.70;;;16.80;66.10
76728;BME280;65652;53.132;18.026;2023-07-22T00:30:40;100592.14;;;16.78;66.39
76728;BME280;65652;53.132;18.026;2023-07-22T00:33:06;100592.23;;;16.74;66.72
76728;BME280;65652;53.132;18.026;2023-07-22T00:35:33;100588.52;;;16.71;66.78
76728;BME280;65652;53.132;18.026;2023-07-22T00:38:00;100587.50;;;16.69;66.92
76728;BME280;65652;53.132;18.026;2023-07-22T00:40:27;100586.40;;;16.66;66.98
76728;BME280;65652;53.132;18.026;2023-07-22T00:42:56;100581.56;;;16.63;66.90
76728;BME280;65652;53.132;18.026;2023-07-22T00:45:22;100576.86;;;16.61;67.24
76728;BME280;65652;53.132;18.026;2023-07-22T00:47:48;100574.69;;;16.60;67.29
76728;BME280;65652;53.132;18.026;2023-07-22T00:50:15;100573.89;;;16.59;67.60
76728;BME280;65652;53.132;18.026;2023-07-22T00:52:42;100574.47;;;16.56;67.61
76728;BME280;65652;53.132;18.026;2023-07-22T00:55:08;100579.56;;;16.56;67.45
76728;BME280;65652;53.132;18.026;2023-07-22T00:57:36;100580.80;;;16.54;67.39
76728;BME280;65652;53.132;18.026;2023-07-22T01:00:02;100581.27;;;16.53;67.72
76728;BME280;65652;53.132;18.026;2023-07-22T01:02:28;100581.45;;;16.52;67.80
76728;BME280;65652;53.132;18.026;2023-07-22T01:04:55;100582.85;;;16.52;67.71
76728;BME280;65652;53.132;18.026;2023-07-22T01:07:21;100582.14;;;16.52;67.74
76728;BME280;65652;53.132;18.026;2023-07-22T01:09:47;100582.52;;;16.50;67.79
76728;BME280;65652;53.132;18.026;2023-07-22T01:12:14;100579.29;;;16.49;68.01
76728;BME280;65652;53.132;18.026;2023-07-22T01:14:41;100577.11;;;16.48;68.05
76728;BME280;65652;53.132;18.026;2023-07-22T01:17:09;100577.83;;;16.46;68.09
76728;BME280;65652;53.132;18.026;2023-07-22T01:19:36;100573.86;;;16.45;68.03
76728;BME280;65652;53.132;18.026;2023-07-22T01:22:06;100572.39;;;16.44;68.14
76728;BME280;65652;53.132;18.026;2023-07-22T01:24:37;100572.92;;;16.44;68.12
76728;BME280;65652;53.132;18.026;2023-07-22T01:27:06;100565.73;;;16.43;68.28
76728;BME280;65652;53.132;18.026;2023-07-22T01:29:34;100564.03;;;16.44;68.42
76728;BME280;65652;53.132;18.026;2023-07-22T01:32:01;100556.98;;;16.44;68.49
76728;BME280;65652;53.132;18.026;2023-07-22T01:34:27;100551.45;;;16.46;68.67
76728;BME280;65652;53.132;18.026;2023-07-22T01:36:53;100547.05;;;16.44;68.80
76728;BME280;65652;53.132;18.026;2023-07-22T01:39:20;100545.66;;;16.41;68.99
76728;BME280;65652;53.132;18.026;2023-07-22T01:41:48;100546.38;;;16.37;69.42
76728;BME280;65652;53.132;18.026;2023-07-22T01:44:14;100548.09;;;16.36;69.34
76728;BME280;65652;53.132;18.026;2023-07-22T01:46:40;100549.69;;;16.36;69.56
76728;BME280;65652;53.132;18.026;2023-07-22T01:49:11;100546.11;;;16.35;69.57
76728;BME280;65652;53.132;18.026;2023-07-22T01:51:39;100541.34;;;16.35;69.45
76728;BME280;65652;53.132;18.026;2023-07-22T01:54:06;100542.48;;;16.34;69.44
76728;BME280;65652;53.132;18.026;2023-07-22T01:56:33;100556.19;;;16.33;69.45
76728;BME280;65652;53.132;18.026;2023-07-22T01:58:59;100557.16;;;16.32;69.82
76728;BME280;65652;53.132;18.026;2023-07-22T02:01:25;100558.88;;;16.31;69.77
76728;BME280;65652;53.132;18.026;2023-07-22T02:03:51;100556.67;;;16.30;69.68
76728;BME280;65652;53.132;18.026;2023-07-22T02:06:18;100560.42;;;16.28;69.34
76728;BME280;65652;53.132;18.026;2023-07-22T02:08:44;100554.17;;;16.27;69.23
76728;BME280;65652;53.132;18.026;2023-07-22T02:11:10;100544.42;;;16.27;69.45
76728;BME280;65652;53.132;18.026;2023-07-22T02:13:37;100536.00;;;16.25;69.55
76728;BME280;65652;53.132;18.026;2023-07-22T02:16:03;100535.66;;;16.23;69.60
76728;BME280;65652;53.132;18.026;2023-07-22T02:18:30;100531.49;;;16.23;69.61
76728;BME280;65652;53.132;18.026;2023-07-22T02:20:56;100523.55;;;16.22;69.63
76728;BME280;65652;53.132;18.026;2023-07-22T02:23:23;100526.45;;;16.23;69.77
76728;BME280;65652;53.132;18.026;2023-07-22T02:25:51;100523.98;;;16.23;70.01
76728;BME280;65652;53.132;18.026;2023-07-22T02:28:18;100531.92;;;16.22;70.02
76728;BME280;65652;53.132;18.026;2023-07-22T02:30:48;100537.33;;;16.20;69.97
76728;BME280;65652;53.132;18.026;2023-07-22T02:33:14;100539.48;;;16.18;70.04
76728;BME280;65652;53.132;18.026;2023-07-22T02:35:41;100540.18;;;16.15;70.07
76728;BME280;65652;53.132;18.026;2023-07-22T02:38:07;100542.48;;;16.15;69.88
76728;BME280;65652;53.132;18.026;2023-07-22T02:40:37;100545.37;;;16.15;69.94
76728;BME280;65652;53.132;18.026;2023-07-22T02:43:04;100546.13;;;16.16;69.89
76728;BME280;65652;53.132;18.026;2023-07-22T02:45:31;100545.82;;;16.17;69.82
76728;BME280;65652;53.132;18.026;2023-07-22T02:47:57;100550.79;;;16.17;69.70
76728;BME280;65652;53.132;18.026;2023-07-22T02:50:23;100550.55;;;16.18;69.59
76728;BME280;65652;53.132;18.026;2023-07-22T02:52:50;100555.00;;;16.18;69.73
76728;BME280;65652;53.132;18.026;2023-07-22T02:55:17;100558.02;;;16.18;69.88
76728;BME280;65652;53.132;18.026;2023-07-22T02:57:47;100558.20;;;16.18;70.01
76728;BME280;65652;53.132;18.026;2023-07-22T03:00:15;100562.48;;;16.17;70.10
76728;BME280;65652;53.132;18.026;2023-07-22T03:02:54;100564.33;;;16.16;69.85
76728;BME280;65652;53.132;18.026;2023-07-22T03:05:27;100563.03;;;16.15;70.10
76728;BME280;65652;53.132;18.026;2023-07-22T03:07:57;100562.23;;;16.12;70.14
76728;BME280;65652;53.132;18.026;2023-07-22T03:10:24;100558.40;;;16.10;70.00
76728;BME280;65652;53.132;18.026;2023-07-22T03:12:55;100559.53;;;16.10;70.23
76728;BME280;65652;53.132;18.026;2023-07-22T03:15:22;100562.77;;;16.08;70.24
76728;BME280;65652;53.132;18.026;2023-07-22T03:17:48;100562.45;;;16.06;70.38
76728;BME280;65652;53.132;18.026;2023-07-22T03:20:15;100564.50;;;16.05;70.45
76728;BME280;65652;53.132;18.026;2023-07-22T03:22:46;100571.59;;;16.04;70.36
76728;BME280;65652;53.132;18.026;2023-07-22T03:25:14;100574.48;;;16.03;70.50
76728;BME280;65652;53.132;18.026;2023-07-22T03:27:43;100571.15;;;16.03;70.71
76728;BME280;65652;53.132;18.026;2023-07-22T03:30:12;100569.48;;;16.02;70.71
76728;BME280;65652;53.132;18.026;2023-07-22T03:32:41;100571.25;;;16.02;70.69
76728;BME280;65652;53.132;18.026;2023-07-22T03:35:08;100571.63;;;16.02;70.75
76728;BME280;65652;53.132;18.026;2023-07-22T03:37:38;100572.82;;;16.01;70.74
76728;BME280;65652;53.132;18.026;2023-07-22T03:40:05;100572.42;;;16.01;70.81
76728;BME280;65652;53.132;18.026;2023-07-22T03:42:43;100574.77;;;16.01;70.93
76728;BME280;65652;53.132;18.026;2023-07-22T03:45:09;100575.83;;;15.99;70.70
76728;BME280;65652;53.132;18.026;2023-07-22T03:47:36;100571.48;;;15.98;70.82
76728;BME280;65652;53.132;18.026;2023-07-22T03:50:02;100571.93;;;15.98;70.85
76728;BME280;65652;53.132;18.026;2023-07-22T03:52:28;100578.21;;;15.97;70.74
76728;BME280;65652;53.132;18.026;2023-07-22T03:54:54;100585.09;;;15.96;70.98
76728;BME280;65652;53.132;18.026;2023-07-22T03:57:25;100585.79;;;15.95;71.08
76728;BME280;65652;53.132;18.026;2023-07-22T03:59:53;100586.02;;;15.93;71.13
76728;BME280;65652;53.132;18.026;2023-07-22T04:02:19;100587.41;;;15.90;71.40
76728;BME280;65652;53.132;18.026;2023-07-22T04:04:45;100590.48;;;15.88;71.33
76728;BME280;65652;53.132;18.026;2023-07-22T04:07:12;100592.29;;;15.86;71.30
76728;BME280;65652;53.132;18.026;2023-07-22T04:09:38;100589.35;;;15.84;71.41
76728;BME280;65652;53.132;18.026;2023-07-22T04:12:05;100587.69;;;15.81;71.47
76728;BME280;65652;53.132;18.026;2023-07-22T04:14:31;100591.08;;;15.79;71.73
76728;BME280;65652;53.132;18.026;2023-07-22T04:16:58;100592.56;;;15.77;71.78
76728;BME280;65652;53.132;18.026;2023-07-22T04:19:24;100593.12;;;15.75;71.88
76728;BME280;65652;53.132;18.026;2023-07-22T04:21:52;100593.73;;;15.73;71.84
76728;BME280;65652;53.132;18.026;2023-07-22T04:24:18;100592.06;;;15.72;71.95
76728;BME280;65652;53.132;18.026;2023-07-22T04:26:45;100594.39;;;15.74;72.24
76728;BME280;65652;53.132;18.026;2023-07-22T04:29:11;100593.17;;;15.75;72.14
76728;BME280;65652;53.132;18.026;2023-07-22T04:31:38;100597.50;;;15.78;72.08
76728;BME280;65652;53.132;18.026;2023-07-22T04:34:05;100601.61;;;15.81;72.48
76728;BME280;65652;53.132;18.026;2023-07-22T04:36:32;100600.90;;;15.83;72.62
76728;BME280;65652;53.132;18.026;2023-07-22T04:38:58;100599.56;;;15.85;72.58
76728;BME280;65652;53.132;18.026;2023-07-22T04:41:24;100602.20;;;15.88;72.53
76728;BME280;65652;53.132;18.026;2023-07-22T04:43:51;100600.53;;;15.92;72.50
76728;BME280;65652;53.132;18.026;2023-07-22T04:46:17;100601.05;;;15.95;72.63
76728;BME280;65652;53.132;18.026;2023-07-22T04:48:43;100601.65;;;15.98;72.72
76728;BME280;65652;53.132;18.026;2023-07-22T04:51:09;100605.32;;;16.02;72.65
76728;BME280;65652;53.132;18.026;2023-07-22T04:53:36;100603.52;;;16.05;72.52
76728;BME280;65652;53.132;18.026;2023-07-22T04:56:02;100604.02;;;16.07;72.43
76728;BME280;65652;53.132;18.026;2023-07-22T04:58:28;100610.38;;;16.12;72.36
76728;BME280;65652;53.132;18.026;2023-07-22T05:00:54;100613.77;;;16.18;72.52
76728;BME280;65652;53.132;18.026;2023-07-22T05:03:20;100612.66;;;16.23;72.38
76728;BME280;65652;53.132;18.026;2023-07-22T05:05:49;100608.67;;;16.31;72.43
76728;BME280;65652;53.132;18.026;2023-07-22T05:08:15;100608.45;;;16.37;72.35
76728;BME280;65652;53.132;18.026;2023-07-22T05:10:41;100609.53;;;16.40;72.40
76728;BME280;65652;53.132;18.026;2023-07-22T05:13:07;100605.50;;;16.41;72.12
76728;BME280;65652;53.132;18.026;2023-07-22T05:15:33;100608.02;;;16.46;72.10
76728;BME280;65652;53.132;18.026;2023-07-22T05:18:00;100609.44;;;16.50;72.12
76728;BME280;65652;53.132;18.026;2023-07-22T05:20:26;100610.09;;;16.52;72.11
76728;BME280;65652;53.132;18.026;2023-07-22T05:22:52;100608.39;;;16.55;71.85
76728;BME280;65652;53.132;18.026;2023-07-22T05:25:18;100606.25;;;16.60;71.87
76728;BME280;65652;53.132;18.026;2023-07-22T05:27:44;100606.44;;;16.62;71.77
76728;BME280;65652;53.132;18.026;2023-07-22T05:30:10;100604.73;;;16.66;71.41
76728;BME280;65652;53.132;18.026;2023-07-22T05:32:36;100606.52;;;16.69;71.26
76728;BME280;65652;53.132;18.026;2023-07-22T05:35:03;100603.80;;;16.71;71.07
76728;BME280;65652;53.132;18.026;2023-07-22T05:37:31;100600.70;;;16.77;70.92
76728;BME280;65652;53.132;18.026;2023-07-22T05:39:59;100598.83;;;16.88;70.93
76728;BME280;65652;53.132;18.026;2023-07-22T05:42:25;100596.05;;;16.97;70.56
76728;BME280;65652;53.132;18.026;2023-07-22T05:44:54;100595.78;;;17.02;70.43
76728;BME280;65652;53.132;18.026;2023-07-22T05:47:20;100598.02;;;17.12;70.34
76728;BME280;65652;53.132;18.026;2023-07-22T05:49:46;100592.36;;;17.23;70.13
76728;BME280;65652;53.132;18.026;2023-07-22T05:52:12;100589.11;;;17.36;69.88
76728;BME280;65652;53.132;18.026;2023-07-22T05:54:38;100586.63;;;17.48;69.61
76728;BME280;65652;53.132;18.026;2023-07-22T05:57:05;100585.62;;;17.64;69.25
76728;BME280;65652;53.132;18.026;2023-07-22T05:59:31;100585.58;;;17.80;68.83
76728;BME280;65652;53.132;18.026;2023-07-22T06:01:58;100588.61;;;17.92;68.12
76728;BME280;65652;53.132;18.026;2023-07-22T06:04:24;100590.80;;;17.99;67.95
76728;BME280;65652;53.132;18.026;2023-07-22T06:06:50;100589.06;;;18.07;67.66
76728;BME280;65652;53.132;18.026;2023-07-22T06:09:16;100588.85;;;18.15;67.37
76728;BME280;65652;53.132;18.026;2023-07-22T06:11:42;100584.02;;;18.25;67.12
76728;BME280;65652;53.132;18.026;2023-07-22T06:14:08;100589.10;;;18.38;66.65
76728;BME280;65652;53.132;18.026;2023-07-22T06:16:35;100594.59;;;18.44;66.32
76728;BME280;65652;53.132;18.026;2023-07-22T06:19:02;100600.34;;;18.51;66.05
76728;BME280;65652;53.132;18.026;2023-07-22T06:21:29;100604.61;;;18.59;65.94
76728;BME280;65652;53.132;18.026;2023-07-22T06:23:55;100606.10;;;18.68;65.39
76728;BME280;65652;53.132;18.026;2023-07-22T06:26:22;100601.56;;;18.77;65.18
76728;BME280;65652;53.132;18.026;2023-07-22T06:28:48;100597.91;;;18.89;65.12
76728;BME280;65652;53.132;18.026;2023-07-22T06:31:14;100598.52;;;19.02;64.58
76728;BME280;65652;53.132;18.026;2023-07-22T06:33:41;100599.19;;;19.15;64.42
76728;BME280;65652;53.132;18.026;2023-07-22T06:36:08;100598.62;;;19.28;63.80
76728;BME280;65652;53.132;18.026;2023-07-22T06:38:34;100597.05;;;19.43;63.62
76728;BME280;65652;53.132;18.026;2023-07-22T06:41:00;100593.52;;;19.62;63.29
76728;BME280;65652;53.132;18.026;2023-07-22T06:43:26;100595.46;;;19.83;62.93
76728;BME280;65652;53.132;18.026;2023-07-22T06:45:52;100596.93;;;20.01;61.71
76728;BME280;65652;53.132;18.026;2023-07-22T06:48:21;100594.73;;;20.18;61.49
76728;BME280;65652;53.132;18.026;2023-07-22T06:50:48;100596.05;;;20.37;60.39
76728;BME280;65652;53.132;18.026;2023-07-22T06:53:15;100595.45;;;20.45;60.02
76728;BME280;65652;53.132;18.026;2023-07-22T06:55:51;100595.90;;;20.53;59.53
76728;BME280;65652;53.132;18.026;2023-07-22T06:58:19;100597.23;;;20.63;59.04
76728;BME280;65652;53.132;18.026;2023-07-22T07:00:45;100595.50;;;20.73;59.21
76728;BME280;65652;53.132;18.026;2023-07-22T07:03:12;100598.39;;;20.92;58.51
76728;BME280;65652;53.132;18.026;2023-07-22T07:05:38;100599.80;;;21.04;57.41
76728;BME280;65652;53.132;18.026;2023-07-22T07:08:08;100611.14;;;21.07;56.29
76728;BME280;65652;53.132;18.026;2023-07-22T07:10:37;100609.11;;;21.09;56.56
76728;BME280;65652;53.132;18.026;2023-07-22T07:13:04;100611.33;;;21.08;55.54
76728;BME280;65652;53.132;18.026;2023-07-22T07:15:30;100608.42;;;21.04;55.98
76728;BME280;65652;53.132;18.026;2023-07-22T07:17:56;100606.86;;;21.08;56.04
76728;BME280;65652;53.132;18.026;2023-07-22T07:20:22;100605.60;;;21.12;54.71
76728;BME280;65652;53.132;18.026;2023-07-22T07:22:48;100606.48;;;21.18;55.54
76728;BME280;65652;53.132;18.026;2023-07-22T07:25:15;100607.61;;;21.33;54.74
76728;BME280;65652;53.132;18.026;2023-07-22T07:27:41;100611.66;;;21.57;55.27
76728;BME280;65652;53.132;18.026;2023-07-22T07:30:07;100614.44;;;21.76;54.26
76728;BME280;65652;53.132;18.026;2023-07-22T07:32:34;100615.75;;;21.93;54.11
76728;BME280;65652;53.132;18.026;2023-07-22T07:35:00;100611.09;;;22.05;54.21
76728;BME280;65652;53.132;18.026;2023-07-22T07:37:27;100612.24;;;22.26;52.92
76728;BME280;65652;53.132;18.026;2023-07-22T07:39:53;100615.23;;;22.19;52.44
76728;BME280;65652;53.132;18.026;2023-07-22T07:42:19;100626.36;;;22.10;51.67
76728;BME280;65652;53.132;18.026;2023-07-22T07:44:46;100629.80;;;21.85;51.85
76728;BME280;65652;53.132;18.026;2023-07-22T07:47:12;100628.98;;;21.60;52.51
76728;BME280;65652;53.132;18.026;2023-07-22T07:49:38;100630.30;;;21.44;52.44
76728;BME280;65652;53.132;18.026;2023-07-22T07:52:04;100624.34;;;21.51;52.64
76728;BME280;65652;53.132;18.026;2023-07-22T07:54:31;100625.17;;;21.84;52.59
76728;BME280;65652;53.132;18.026;2023-07-22T07:56:57;100633.26;;;22.20;50.90
76728;BME280;65652;53.132;18.026;2023-07-22T07:59:23;100630.15;;;22.36;50.01
76728;BME280;65652;53.132;18.026;2023-07-22T08:01:49;100629.49;;;22.29;50.22
76728;BME280;65652;53.132;18.026;2023-07-22T08:04:15;100632.13;;;22.14;50.53
76728;BME280;65652;53.132;18.026;2023-07-22T08:06:43;100633.30;;;22.10;50.55
76728;BME280;65652;53.132;18.026;2023-07-22T08:09:09;100632.05;;;22.13;50.77
76728;BME280;65652;53.132;18.026;2023-07-22T08:11:37;100635.49;;;22.09;50.73
76728;BME280;65652;53.132;18.026;2023-07-22T08:14:04;100639.65;;;22.11;50.45
76728;BME280;65652;53.132;18.026;2023-07-22T08:16:31;100640.23;;;22.03;49.97
76728;BME280;65652;53.132;18.026;2023-07-22T08:18:57;100648.66;;;21.89;50.30
76728;BME280;65652;53.132;18.026;2023-07-22T08:21:24;100646.66;;;22.04;50.75
76728;BME280;65652;53.132;18.026;2023-07-22T08:23:50;100650.18;;;22.39;49.88
76728;BME280;65652;53.132;18.026;2023-07-22T08:26:16;100645.66;;;22.46;49.09
76728;BME280;65652;53.132;18.026;2023-07-22T08:28:47;100652.15;;;22.63;48.77
76728;BME280;65652;53.132;18.026;2023-07-22T08:31:13;100648.64;;;22.85;47.87
76728;BME280;65652;53.132;18.026;2023-07-22T08:33:39;100644.48;;;22.98;47.51
76728;BME280;65652;53.132;18.026;2023-07-22T08:36:05;100647.38;;;22.77;47.78
76728;BME280;65652;53.132;18.026;2023-07-22T08:38:32;100654.48;;;22.60;48.41
76728;BME280;65652;53.132;18.026;2023-07-22T08:40:58;100653.67;;;22.43;48.20
76728;BME280;65652;53.132;18.026;2023-07-22T08:43:25;100662.61;;;22.16;48.46
76728;BME280;65652;53.132;18.026;2023-07-22T08:45:54;100668.98;;;21.88;48.76
76728;BME280;65652;53.132;18.026;2023-07-22T08:48:21;100670.41;;;22.05;48.88
76728;BME280;65652;53.132;18.026;2023-07-22T08:51:17;100669.27;;;22.44;48.86
76728;BME280;65652;53.132;18.026;2023-07-22T08:53:45;100669.02;;;22.85;48.38
76728;BME280;65652;53.132;18.026;2023-07-22T08:56:11;100672.58;;;23.13;47.29
76728;BME280;65652;53.132;18.026;2023-07-22T08:58:38;100670.96;;;22.96;48.60
76728;BME280;65652;53.132;18.026;2023-07-22T09:01:05;100669.71;;;23.00;49.55
76728;BME280;65652;53.132;18.026;2023-07-22T09:03:32;100675.42;;;23.08;49.72
76728;BME280;65652;53.132;18.026;2023-07-22T09:05:58;100674.78;;;23.04;50.17
76728;BME280;65652;53.132;18.026;2023-07-22T09:08:25;100678.36;;;22.87;50.35
76728;BME280;65652;53.132;18.026;2023-07-22T09:10:51;100682.85;;;22.67;50.78
76728;BME280;65652;53.132;18.026;2023-07-22T09:13:18;100686.25;;;22.44;51.08
76728;BME280;65652;53.132;18.026;2023-07-22T09:15:46;100689.39;;;22.19;51.60
76728;BME280;65652;53.132;18.026;2023-07-22T09:18:14;100692.56;;;21.88;52.50
76728;BME280;65652;53.132;18.026;2023-07-22T09:20:41;100693.21;;;21.55;53.00
76728;BME280;65652;53.132;18.026;2023-07-22T09:23:08;100693.45;;;21.37;53.62
76728;BME280;65652;53.132;18.026;2023-07-22T09:25:34;100702.31;;;21.26;54.30
76728;BME280;65652;53.132;18.026;2023-07-22T09:28:00;100701.39;;;21.13;54.65
76728;BME280;65652;53.132;18.026;2023-07-22T09:30:28;100704.25;;;21.10;55.12
76728;BME280;65652;53.132;18.026;2023-07-22T09:32:56;100703.56;;;21.07;55.34
76728;BME280;65652;53.132;18.026;2023-07-22T09:35:26;100708.15;;;21.04;55.45
76728;BME280;65652;53.132;18.026;2023-07-22T09:37:53;100719.55;;;21.06;55.55
76728;BME280;65652;53.132;18.026;2023-07-22T09:40:25;100720.23;;;21.09;55.60
76728;BME280;65652;53.132;18.026;2023-07-22T09:43:01;100729.30;;;20.99;55.67
76728;BME280;65652;53.132;18.026;2023-07-22T09:45:31;100723.66;;;20.83;56.19
76728;BME280;65652;53.132;18.026;2023-07-22T09:47:58;100725.91;;;20.74;56.19
76728;BME280;65652;53.132;18.026;2023-07-22T09:50:26;100731.36;;;20.63;56.47
76728;BME280;65652;53.132;18.026;2023-07-22T09:52:59;100735.23;;;20.55;56.65
76728;BME280;65652;53.132;18.026;2023-07-22T09:55:27;100737.48;;;20.47;56.56
76728;BME280;65652;53.132;18.026;2023-07-22T09:57:58;100735.79;;;20.37;56.74
76728;BME280;65652;53.132;18.026;2023-07-22T10:00:30;100733.64;;;20.27;56.59
76728;BME280;65652;53.132;18.026;2023-07-22T10:02:58;100735.98;;;20.23;56.79
76728;BME280;65652;53.132;18.026;2023-07-22T10:05:26;100747.23;;;20.38;56.54
76728;BME280;65652;53.132;18.026;2023-07-22T10:07:56;100741.99;;;20.58;55.85
76728;BME280;65652;53.132;18.026;2023-07-22T10:10:33;100744.45;;;20.94;55.22
76728;BME280;65652;53.132;18.026;2023-07-22T10:12:59;100738.46;;;21.08;54.44
76728;BME280;65652;53.132;18.026;2023-07-22T10:15:28;100743.63;;;21.40;53.68
76728;BME280;65652;53.132;18.026;2023-07-22T10:17:56;100740.52;;;21.84;52.98
76728;BME280;65652;53.132;18.026;2023-07-22T10:20:23;100738.86;;;22.33;51.46
76728;BME280;65652;53.132;18.026;2023-07-22T10:22:50;100738.09;;;22.69;50.61
76728;BME280;65652;53.132;18.026;2023-07-22T10:25:18;100742.04;;;23.13;49.44
76728;BME280;65652;53.132;18.026;2023-07-22T10:27:45;100742.97;;;23.54;48.21
76728;BME280;65652;53.132;18.026;2023-07-22T10:30:14;100752.02;;;23.79;46.15
76728;BME280;65652;53.132;18.026;2023-07-22T10:32:44;100747.52;;;23.85;45.30
76728;BME280;65652;53.132;18.026;2023-07-22T10:36:01;100746.06;;;23.84;45.59
76728;BME280;65652;53.132;18.026;2023-07-22T10:38:12;100739.69;;;23.96;46.34
76728;BME280;65652;53.132;18.026;2023-07-22T10:40:52;100743.38;;;24.13;44.62
76728;BME280;65652;53.132;18.026;2023-07-22T10:43:29;100738.85;;;24.15;43.62
76728;BME280;65652;53.132;18.026;2023-07-22T10:45:58;100737.63;;;23.93;44.48
76728;BME280;65652;53.132;18.026;2023-07-22T10:48:37;100737.43;;;24.04;43.89
76728;BME280;65652;53.132;18.026;2023-07-22T10:51:09;100734.44;;;24.16;43.80
76728;BME280;65652;53.132;18.026;2023-07-22T10:53:44;100734.12;;;24.19;43.42
76728;BME280;65652;53.132;18.026;2023-07-22T11:04:03;100732.55;;;24.17;41.72
76728;BME280;65652;53.132;18.026;2023-07-22T11:06:29;100737.60;;;24.10;42.66
76728;BME280;65652;53.132;18.026;2023-07-22T11:08:56;100745.07;;;23.86;42.88
76728;BME280;65652;53.132;18.026;2023-07-22T11:11:44;100739.14;;;23.65;43.17
76728;BME280;65652;53.132;18.026;2023-07-22T11:14:20;100740.73;;;23.31;42.79
76728;BME280;65652;53.132;18.026;2023-07-22T11:16:48;100744.46;;;22.96;42.28
76728;BME280;65652;53.132;18.026;2023-07-22T11:19:15;100748.62;;;22.82;42.14
76728;BME280;65652;53.132;18.026;2023-07-22T11:21:43;100746.14;;;23.18;41.89
76728;BME280;65652;53.132;18.026;2023-07-22T11:24:10;100745.05;;;23.63;41.26
76728;BME280;65652;53.132;18.026;2023-07-22T11:26:37;100737.73;;;24.04;39.57
76728;BME280;65652;53.132;18.026;2023-07-22T11:29:05;100734.08;;;24.39;38.70
76728;BME280;65652;53.132;18.026;2023-07-22T11:31:37;100733.10;;;24.76;37.73
76728;BME280;65652;53.132;18.026;2023-07-22T11:34:04;100730.21;;;24.95;37.16
76728;BME280;65652;53.132;18.026;2023-07-22T11:36:31;100725.46;;;25.24;37.55
76728;BME280;65652;53.132;18.026;2023-07-22T11:39:05;100728.27;;;25.45;37.04
76728;BME280;65652;53.132;18.026;2023-07-22T11:41:32;100726.23;;;25.75;36.47
76728;BME280;65652;53.132;18.026;2023-07-22T11:44:00;100719.82;;;26.09;35.56
76728;BME280;65652;53.132;18.026;2023-07-22T11:46:29;100721.62;;;26.25;35.48
76728;BME280;65652;53.132;18.026;2023-07-22T11:48:55;100723.42;;;26.32;34.90
76728;BME280;65652;53.132;18.026;2023-07-22T11:51:24;100726.52;;;26.34;34.99
76728;BME280;65652;53.132;18.026;2023-07-22T11:53:52;100727.63;;;26.50;34.59
76728;BME280;65652;53.132;18.026;2023-07-22T11:56:28;100730.05;;;26.46;34.51
76728;BME280;65652;53.132;18.026;2023-07-22T11:58:56;100733.63;;;25.94;35.08
76728;BME280;65652;53.132;18.026;2023-07-22T12:01:23;100737.81;;;25.45;35.72
76728;BME280;65652;53.132;18.026;2023-07-22T12:03:55;100740.36;;;24.99;36.67
76728;BME280;65652;53.132;18.026;2023-07-22T12:06:25;100745.21;;;24.75;37.29
76728;BME280;65652;53.132;18.026;2023-07-22T12:08:51;100748.13;;;24.75;37.61
76728;BME280;65652;53.132;18.026;2023-07-22T12:11:22;100745.00;;;25.20;37.72
76728;BME280;65652;53.132;18.026;2023-07-22T12:16:36;100738.51;;;25.90;36.21
76728;BME280;65652;53.132;18.026;2023-07-22T12:19:03;100729.49;;;25.99;35.96
76728;BME280;65652;53.132;18.026;2023-07-22T12:21:29;100729.51;;;26.02;35.97
76728;BME280;65652;53.132;18.026;2023-07-22T12:23:56;100727.71;;;26.04;34.59
76728;BME280;65652;53.132;18.026;2023-07-22T12:26:22;100722.40;;;25.95;34.03
76728;BME280;65652;53.132;18.026;2023-07-22T12:28:48;100730.31;;;25.73;33.80
76728;BME280;65652;53.132;18.026;2023-07-22T12:31:14;100731.23;;;25.88;33.33
76728;BME280;65652;53.132;18.026;2023-07-22T12:33:41;100732.09;;;26.04;32.63
76728;BME280;65652;53.132;18.026;2023-07-22T12:36:07;100723.67;;;26.11;32.86
76728;BME280;65652;53.132;18.026;2023-07-22T12:38:34;100729.52;;;26.09;33.09
76728;BME280;65652;53.132;18.026;2023-07-22T12:41:00;100725.86;;;25.81;33.22
76728;BME280;65652;53.132;18.026;2023-07-22T12:43:27;100733.20;;;25.26;34.20
76728;BME280;65652;53.132;18.026;2023-07-22T12:45:53;100742.55;;;24.81;34.72
76728;BME280;65652;53.132;18.026;2023-07-22T12:48:20;100743.96;;;24.33;35.53
76728;BME280;65652;53.132;18.026;2023-07-22T12:50:46;100749.57;;;24.01;35.88
76728;BME280;65652;53.132;18.026;2023-07-22T12:53:15;100748.33;;;23.82;35.73